Time;durP1;ratioP1;P1;durP2;ratioP2;P2;SDS_P1;SDS_P2;PMS_P1;PMS_P2;Temp;Humidity;BMP_temperature;BMP_pressure;BME280_temperature;BME280_humidity;BME280_pressure;Samples;Min_cycle;Max_cycle;Signal;HPM_P1;HPM_P2
2023/09/04 00:01:38;;;;;;;7.27;5.93;;;;;;;14.79;98.01;102530.66;5204793;28;20041;-80
2023/09/04 00:04:10;;;;;;;8.90;5.83;;;;;;;14.79;98.10;102541.16;5222065;28;20056;-80
2023/09/04 00:06:41;;;;;;;9.33;5.57;;;;;;;14.72;98.05;102538.53;5222738;28;20493;-80
2023/09/04 00:09:15;;;;;;;7.57;5.67;;;;;;;14.62;98.11;102539.44;5221225;28;20026;-80
2023/09/04 00:11:46;;;;;;;7.15;6.13;;;;;;;14.62;98.08;102533.28;5222324;28;20038;-79
2023/09/04 00:14:17;;;;;;;7.50;5.67;;;;;;;14.55;97.90;102524.53;5221476;28;20034;-80
2023/09/04 00:16:52;;;;;;;9.23;6.10;;;;;;;14.56;98.64;102534.16;5204660;28;20030;-79
2023/09/04 00:19:23;;;;;;;8.32;6.15;;;;;;;14.49;98.43;102521.91;5221090;28;20493;-79
2023/09/04 00:21:55;;;;;;;9.43;6.13;;;;;;;14.45;98.84;102518.41;5221485;28;20044;-80
2023/09/04 00:24:26;;;;;;;7.77;6.37;;;;;;;14.26;98.48;102514.06;5220755;28;20469;-80
2023/09/04 00:26:57;;;;;;;7.37;6.50;;;;;;;14.34;99.22;102525.44;5220086;28;20026;-79
2023/09/04 00:29:29;;;;;;;8.87;6.77;;;;;;;14.14;99.42;102515.81;5203161;28;20034;-79
2023/09/04 00:32:02;;;;;;;6.57;5.80;;;;;;;14.21;99.55;102512.31;5221137;28;20057;-80
2023/09/04 00:34:33;;;;;;;8.05;6.40;;;;;;;14.13;100.00;102513.19;5220574;28;20030;-80
2023/09/04 00:37:09;;;;;;;8.53;6.30;;;;;;;14.07;100.00;102518.44;5187284;28;20042;-79
2023/09/04 00:39:41;;;;;;;12.27;6.30;;;;;;;13.98;100.00;102525.44;5220798;28;20377;-79
2023/09/04 00:42:15;;;;;;;11.77;6.77;;;;;;;14.01;100.00;102514.94;5221078;28;20026;-80
2023/09/04 00:44:50;;;;;;;7.25;6.50;;;;;;;13.96;100.00;102521.94;5219863;28;20492;-79
2023/09/04 00:47:23;;;;;;;10.13;6.85;;;;;;;13.89;100.00;102521.94;5221586;28;20084;-79
2023/09/04 00:49:55;;;;;;;7.53;6.80;;;;;;;13.77;100.00;102526.28;5222123;28;20042;-80
2023/09/04 00:52:26;;;;;;;10.18;6.70;;;;;;;13.70;100.00;102526.25;5226755;28;20038;-80
2023/09/04 00:54:59;;;;;;;8.50;6.60;;;;;;;13.78;100.00;102532.38;5230446;28;20034;-80
2023/09/04 00:57:30;;;;;;;6.82;6.13;;;;;;;13.76;100.00;102531.50;5208476;28;20084;-80
2023/09/04 01:00:10;;;;;;;9.73;7.03;;;;;;;13.66;100.00;102526.25;5220401;28;20359;-80
2023/09/04 01:02:41;;;;;;;8.85;6.60;;;;;;;13.64;100.00;102533.25;5220482;28;20041;-79
2023/09/04 01:05:13;;;;;;;7.77;7.03;;;;;;;13.61;100.00;102519.25;5221955;28;20026;-79
2023/09/04 01:07:45;;;;;;;8.13;7.00;;;;;;;13.54;100.00;102523.63;5226237;28;20117;-80
2023/09/04 01:10:16;;;;;;;6.90;6.20;;;;;;;13.44;100.00;102522.72;5219562;28;20026;-81
2023/09/04 01:13:15;;;;;;;8.67;6.77;;;;;;;13.50;100.00;102516.59;5220789;28;20030;-80
2023/09/04 01:15:47;;;;;;;7.28;6.50;;;;;;;13.35;100.00;102520.06;5219660;28;20100;-80
2023/09/04 01:18:19;;;;;;;7.05;6.45;;;;;;;13.42;100.00;102528.81;5220390;28;20037;-80
2023/09/04 01:21:06;;;;;;;10.67;7.70;;;;;;;13.36;100.00;102513.94;5182243;28;1090343;-80
2023/09/04 01:23:37;;;;;;;9.52;6.95;;;;;;;13.27;100.00;102509.50;5220670;28;20097;-79
2023/09/04 01:26:34;;;;;;;9.27;6.70;;;;;;;13.27;100.00;102516.50;5221495;28;20474;-80
2023/09/04 01:29:30;;;;;;;8.30;7.50;;;;;;;13.10;100.00;102517.28;5211774;28;20096;-80
2023/09/04 01:32:18;;;;;;;7.38;6.65;;;;;;;13.02;100.00;102510.28;5220819;28;20030;-80
2023/09/04 01:34:51;;;;;;;9.10;6.50;;;;;;;12.95;100.00;102512.88;5220283;28;20548;-79
2023/09/04 01:37:23;;;;;;;12.02;7.40;;;;;;;12.89;100.00;102517.19;5221124;28;20025;-79
2023/09/04 01:39:55;;;;;;;9.20;7.35;;;;;;;12.84;100.00;102513.69;5219969;28;20038;-80
2023/09/04 01:42:26;;;;;;;10.83;7.23;;;;;;;12.78;100.00;102514.50;5221119;28;20030;-80
2023/09/04 01:44:58;;;;;;;10.70;6.87;;;;;;;12.77;100.00;102516.25;5209793;28;20022;-80
2023/09/04 01:47:30;;;;;;;9.13;7.80;;;;;;;12.75;100.00;102518.00;5200410;28;20030;-79
2023/09/04 01:50:02;;;;;;;10.07;7.80;;;;;;;12.75;100.00;102517.09;5199346;28;20022;-79
2023/09/04 01:52:33;;;;;;;8.57;7.60;;;;;;;12.66;100.00;102511.84;5182742;28;20504;-79
2023/09/04 01:55:05;;;;;;;11.23;7.30;;;;;;;12.77;100.00;102508.41;5198340;28;20090;-80
2023/09/04 01:57:36;;;;;;;12.00;7.03;;;;;;;12.70;100.00;102510.97;5200452;28;20496;-80
2023/09/04 02:00:09;;;;;;;8.97;8.07;;;;;;;12.67;100.00;102505.72;5181594;28;20033;-79
2023/09/04 02:02:40;;;;;;;8.15;7.28;;;;;;;12.70;100.00;102513.59;5181255;28;20053;-78
2023/09/04 02:05:12;;;;;;;9.00;7.63;;;;;;;12.68;100.00;102505.72;5199362;28;20035;-80
2023/09/04 02:07:43;;;;;;;8.63;7.83;;;;;;;12.62;100.00;102503.06;5199822;28;20088;-79
2023/09/04 02:10:14;;;;;;;8.60;7.70;;;;;;;12.62;100.00;102503.06;5199498;28;20566;-79
2023/09/04 02:12:46;;;;;;;9.67;8.10;;;;;;;12.53;100.00;102503.03;5198044;28;20054;-79
2023/09/04 02:15:17;;;;;;;9.17;8.27;;;;;;;12.54;100.00;102497.81;5199293;28;20030;-81
2023/09/04 02:17:49;;;;;;;9.60;8.50;;;;;;;12.44;100.00;102498.59;5199222;28;20033;-80
2023/09/04 02:20:21;;;;;;;11.50;8.77;;;;;;;12.40;100.00;102492.47;5199505;28;20489;-80
2023/09/04 02:22:52;;;;;;;9.25;8.35;;;;;;;12.32;100.00;102488.94;5200646;28;20043;-80
2023/09/04 02:25:24;;;;;;;10.27;8.83;;;;;;;12.28;100.00;102479.31;5199997;28;20035;-80
2023/09/04 02:27:56;;;;;;;9.93;8.82;;;;;;;12.22;100.00;102480.16;5201253;28;20038;-80
2023/09/04 02:30:27;;;;;;;10.27;9.27;;;;;;;12.21;100.00;102485.38;5201086;28;20084;-80
2023/09/04 02:33:00;;;;;;;10.27;9.13;;;;;;;12.14;100.00;102481.84;5202542;28;20061;-80
2023/09/04 02:35:31;;;;;;;9.95;8.95;;;;;;;12.21;100.00;102482.75;5201654;28;20106;-81
2023/09/04 02:38:03;;;;;;;14.03;9.37;;;;;;;12.17;100.00;102478.34;5203994;28;20027;-80
2023/09/04 02:40:34;;;;;;;12.33;8.30;;;;;;;11.97;100.00;102471.22;5202948;28;20092;-79
2023/09/04 02:43:05;;;;;;;10.63;9.40;;;;;;;12.01;100.00;102467.78;5203961;28;20034;-81
2023/09/04 02:45:37;;;;;;;10.17;9.17;;;;;;;11.99;100.00;102474.75;5203508;28;20084;-79
2023/09/04 02:48:08;;;;;;;10.50;9.40;;;;;;;11.97;100.00;102475.59;5204541;28;20031;-80
2023/09/04 02:50:40;;;;;;;12.33;9.77;;;;;;;11.86;100.00;102478.06;5185452;28;20113;-80
2023/09/04 02:53:12;;;;;;;11.10;10.00;;;;;;;11.85;100.00;102477.22;5203187;28;20085;-80
2023/09/04 02:55:47;;;;;;;10.37;9.37;;;;;;;11.92;100.00;102472.94;5185001;28;20390;-80
2023/09/04 02:58:20;;;;;;;12.23;9.43;;;;;;;11.87;100.00;102469.38;5186528;28;20462;-80
2023/09/04 03:00:51;;;;;;;10.27;9.27;;;;;;;11.90;100.00;102476.34;5185373;28;20045;-80
2023/09/04 03:03:23;;;;;;;10.70;9.60;;;;;;;11.86;100.00;102467.63;5203045;28;20582;-80
2023/09/04 03:05:54;;;;;;;11.87;9.53;;;;;;;11.85;100.00;102463.28;5202577;28;20030;-79
2023/09/04 03:08:25;;;;;;;11.40;10.27;;;;;;;11.82;100.00;102461.50;5202693;28;20069;-80
2023/09/04 03:10:57;;;;;;;12.73;10.20;;;;;;;11.83;100.00;102464.97;5202330;28;20038;-79
2023/09/04 03:13:28;;;;;;;14.93;10.33;;;;;;;11.78;100.00;102457.09;5185723;28;20039;-80
2023/09/04 03:15:59;;;;;;;11.40;10.33;;;;;;;11.76;100.00;102455.34;5201716;28;20034;-80
2023/09/04 03:18:33;;;;;;;11.60;10.37;;;;;;;11.77;100.00;102451.84;5202465;28;20038;-79
2023/09/04 03:21:05;;;;;;;13.60;9.90;;;;;;;11.76;100.00;102439.66;5202840;28;20034;-80
2023/09/04 03:23:36;;;;;;;12.05;10.95;;;;;;;11.60;100.00;102442.13;5185184;28;20042;-80
2023/09/04 03:26:07;;;;;;;12.57;11.27;;;;;;;11.76;100.00;102434.44;5202506;28;20092;-79
2023/09/04 03:28:39;;;;;;;12.87;11.37;;;;;;;11.76;100.00;102435.31;5201774;28;20105;-79
2023/09/04 03:31:14;;;;;;;13.07;11.37;;;;;;;11.68;100.00;102437.84;5202860;28;20038;-80
2023/09/04 03:33:45;;;;;;;13.02;11.63;;;;;;;11.70;100.00;102444.84;5201987;28;20053;-81
2023/09/04 03:36:16;;;;;;;12.30;10.83;;;;;;;11.78;100.00;102443.16;5185031;28;20030;-80
2023/09/04 03:38:48;;;;;;;14.03;12.73;;;;;;;11.73;100.00;102443.13;5201276;28;20034;-81
2023/09/04 03:41:19;;;;;;;13.73;12.30;;;;;;;11.70;100.00;102445.69;5202666;28;20077;-80
2023/09/04 03:43:50;;;;;;;15.43;13.07;;;;;;;11.65;100.00;102450.88;5201412;28;20093;-80
2023/09/04 03:46:22;;;;;;;13.60;12.30;;;;;;;11.73;100.00;102440.50;5201236;28;20056;-80
2023/09/04 03:48:53;;;;;;;15.20;12.03;;;;;;;11.74;100.00;102437.03;5201768;28;20541;-79
2023/09/04 03:51:25;;;;;;;14.80;12.03;;;;;;;11.69;100.00;102443.97;5202501;28;20035;-79
2023/09/04 03:54:01;;;;;;;14.27;12.83;;;;;;;11.66;100.00;102436.09;5201382;28;20026;-80
2023/09/04 03:56:32;;;;;;;14.15;12.70;;;;;;;11.63;100.00;102436.94;5202375;28;20038;-80
2023/09/04 03:59:04;;;;;;;14.40;12.87;;;;;;;11.59;100.00;102432.56;5184255;28;20100;-80
2023/09/04 04:01:35;;;;;;;16.10;14.63;;;;;;;11.62;100.00;102421.25;5202016;28;20038;-79
2023/09/04 04:04:11;;;;;;;14.27;12.90;;;;;;;11.62;100.00;102429.09;5201020;28;20038;-79
2023/09/04 04:06:42;;;;;;;15.25;13.68;;;;;;;11.64;100.00;102422.13;5202241;28;20121;-79
2023/09/04 04:09:15;;;;;;;15.37;13.77;;;;;;;11.60;100.00;102431.69;5183795;28;20030;-80
2023/09/04 04:11:47;;;;;;;15.05;13.55;;;;;;;11.55;100.00;102429.91;5201662;28;20026;-79
2023/09/04 04:14:18;;;;;;;16.43;14.77;;;;;;;11.56;100.00;102432.53;5183592;28;20427;-79
2023/09/04 04:16:49;;;;;;;16.37;14.70;;;;;;;11.57;100.00;102433.41;5201488;28;20097;-79
2023/09/04 04:19:21;;;;;;;17.30;14.43;;;;;;;11.52;100.00;102430.75;5201200;28;20470;-82
2023/09/04 04:21:52;;;;;;;18.77;16.30;;;;;;;11.47;100.00;102437.66;5201708;28;20042;-81
2023/09/04 04:24:24;;;;;;;15.87;14.33;;;;;;;11.47;100.00;102437.66;5200824;28;20038;-81
2023/09/04 04:26:55;;;;;;;17.23;15.47;;;;;;;11.45;100.00;102428.94;5201689;28;20482;-81
2023/09/04 04:29:26;;;;;;;17.27;15.63;;;;;;;11.38;100.00;102437.56;5200706;28;20041;-80
2023/09/04 04:31:58;;;;;;;17.07;15.43;;;;;;;11.38;100.00;102425.41;5183974;28;20398;-82
2023/09/04 04:34:29;;;;;;;19.17;14.80;;;;;;;11.37;100.00;102422.78;5183595;28;20030;-82
2023/09/04 04:37:00;;;;;;;17.10;15.30;;;;;;;11.32;100.00;102430.56;5201692;28;20069;-82
2023/09/04 04:39:32;;;;;;;16.17;14.60;;;;;;;11.24;100.00;102427.84;5201071;28;20026;-84
2023/09/04 04:42:03;;;;;;;19.30;16.33;;;;;;;11.27;100.00;102427.88;5201203;28;20105;-81
2023/09/04 04:44:35;;;;;;;18.27;15.83;;;;;;;11.25;100.00;102436.56;5201440;28;20038;-82
2023/09/04 04:47:06;;;;;;;17.23;15.43;;;;;;;11.26;100.00;102425.25;5184110;28;20037;-81
2023/09/04 04:49:37;;;;;;;17.73;15.93;;;;;;;11.26;100.00;102420.91;5200572;28;20031;-82
2023/09/04 04:52:09;;;;;;;16.03;14.37;;;;;;;11.31;100.00;102429.66;5201842;28;20381;-81
2023/09/04 04:54:40;;;;;;;19.17;16.83;;;;;;;11.26;100.00;102426.13;5202322;28;20122;-82
2023/09/04 04:57:12;;;;;;;16.00;14.47;;;;;;;11.09;100.00;102415.53;5201560;28;20034;-82
2023/09/04 04:59:43;;;;;;;17.07;15.27;;;;;;;11.11;100.00;102419.00;5201667;28;20034;-81
2023/09/04 05:02:17;;;;;;;17.40;15.60;;;;;;;11.13;100.00;102416.41;5200917;28;20113;-81
2023/09/04 05:04:48;;;;;;;16.95;14.85;;;;;;;11.09;100.00;102415.53;5200974;28;20026;-80
2023/09/04 05:07:20;;;;;;;17.37;15.67;;;;;;;11.12;100.00;102417.25;5201093;28;20038;-81
2023/09/04 05:09:55;;;;;;;18.20;16.27;;;;;;;11.16;100.00;102429.50;5183515;28;20089;-81
2023/09/04 05:12:27;;;;;;;17.98;16.10;;;;;;;11.20;100.00;102428.66;5200825;28;20462;-81
2023/09/04 05:14:58;;;;;;;19.13;16.73;;;;;;;11.17;100.00;102430.38;5200800;28;20070;-82
2023/09/04 05:17:30;;;;;;;17.50;14.83;;;;;;;11.26;100.00;102430.47;5200529;28;20034;-81
2023/09/04 05:20:03;;;;;;;17.73;16.13;;;;;;;11.23;100.00;102428.69;5200331;28;20517;-80
2023/09/04 05:22:35;;;;;;;17.27;15.68;;;;;;;11.30;100.00;102429.63;5200792;28;20046;-82
2023/09/04 05:25:09;;;;;;;17.07;15.40;;;;;;;11.30;100.00;102435.75;5200644;28;20034;-82
2023/09/04 05:27:40;;;;;;;17.58;15.75;;;;;;;11.39;100.00;102428.88;5200831;28;20023;-82
2023/09/04 05:30:12;;;;;;;18.20;15.37;;;;;;;11.43;100.00;102428.03;5201054;28;20367;-81
2023/09/04 05:32:43;;;;;;;18.23;16.33;;;;;;;11.42;100.00;102429.78;5200917;28;20039;-82
2023/09/04 05:35:14;;;;;;;18.20;15.47;;;;;;;11.44;100.00;102428.03;5200945;28;20093;-81
2023/09/04 05:37:46;;;;;;;16.60;15.00;;;;;;;11.55;100.00;102433.38;5200758;28;20521;-81
2023/09/04 05:40:17;;;;;;;18.50;16.70;;;;;;;11.54;100.00;102433.38;5200879;28;20117;-81
2023/09/04 05:42:49;;;;;;;19.57;17.10;;;;;;;11.61;100.00;102443.03;5200578;28;20438;-81
2023/09/04 05:45:21;;;;;;;17.73;15.93;;;;;;;11.59;100.00;102429.94;5200118;28;20390;-81
2023/09/04 05:47:52;;;;;;;18.77;16.45;;;;;;;11.66;100.00;102436.09;5200735;28;20085;-81
2023/09/04 05:50:23;;;;;;;18.63;16.53;;;;;;;11.80;100.00;102428.38;5200643;28;20030;-81
2023/09/04 05:52:55;;;;;;;17.83;16.03;;;;;;;11.86;100.00;102431.03;5200603;28;20041;-82
2023/09/04 05:55:26;;;;;;;17.57;15.93;;;;;;;11.92;100.00;102438.09;5200693;28;20470;-82
2023/09/04 05:57:57;;;;;;;17.90;16.20;;;;;;;11.96;100.00;102437.25;5200553;28;20031;-81
2023/09/04 06:00:29;;;;;;;21.73;17.60;;;;;;;12.02;100.00;102429.47;5200623;28;20061;-82
2023/09/04 06:03:00;;;;;;;17.13;15.53;;;;;;;12.07;100.00;102439.94;5182938;28;20034;-82
2023/09/04 06:05:32;;;;;;;18.37;16.70;;;;;;;12.21;100.00;102440.94;5200786;28;20030;-81
2023/09/04 06:08:04;;;;;;;17.97;16.37;;;;;;;12.30;100.00;102433.16;5201629;28;20030;-82
2023/09/04 06:10:35;;;;;;;18.97;17.17;;;;;;;12.42;100.00;102437.56;5186821;28;20041;-82
2023/09/04 06:13:06;;;;;;;18.77;16.97;;;;;;;12.53;100.00;102443.75;5203866;28;20114;-82
2023/09/04 06:15:38;;;;;;;17.83;15.50;;;;;;;12.62;100.00;102445.53;5203933;28;20479;-81
2023/09/04 06:18:09;;;;;;;17.60;15.80;;;;;;;12.66;100.00;102439.44;5186709;28;20035;-82
2023/09/04 06:20:41;;;;;;;18.47;16.33;;;;;;;12.86;100.00;102446.50;5203763;28;20116;-82
2023/09/04 06:23:12;;;;;;;19.73;17.83;;;;;;;12.92;100.00;102441.31;5186757;28;20058;-81
2023/09/04 06:25:44;;;;;;;18.57;16.57;;;;;;;12.96;100.00;102445.72;5204295;28;20367;-81
2023/09/04 06:28:16;;;;;;;16.83;15.20;;;;;;;13.06;100.00;102451.84;5203953;28;20042;-81
2023/09/04 06:30:49;;;;;;;17.40;15.82;;;;;;;13.13;100.00;102441.38;5203931;28;20085;-81
2023/09/04 06:33:21;;;;;;;18.52;16.73;;;;;;;13.22;100.00;102443.16;5186590;28;20050;-81
2023/09/04 06:35:52;;;;;;;20.47;17.93;;;;;;;13.31;100.00;102444.91;5204000;28;20039;-81
2023/09/04 06:38:24;;;;;;;16.80;15.30;;;;;;;13.38;100.00;102445.84;5203799;28;20031;-81
2023/09/04 06:40:58;;;;;;;17.25;15.60;;;;;;;13.50;100.00;102438.88;5203693;28;20118;-81
2023/09/04 06:43:30;;;;;;;17.48;15.88;;;;;;;13.55;100.00;102433.66;5186161;28;20049;-82
2023/09/04 06:46:02;;;;;;;17.75;15.73;;;;;;;13.73;100.00;102430.16;5185999;28;20030;-82
2023/09/04 06:48:34;;;;;;;17.73;15.43;;;;;;;13.82;100.00;102435.41;5203369;28;20046;-81
2023/09/04 06:51:07;;;;;;;17.27;15.53;;;;;;;13.97;100.00;102438.91;5203440;28;20390;-81
2023/09/04 06:53:38;;;;;;;18.73;16.73;;;;;;;14.07;100.00;102432.81;5203483;28;20120;-81
2023/09/04 06:56:10;;;;;;;17.17;15.37;;;;;;;14.21;100.00;102438.88;5185918;28;20058;-81
2023/09/04 06:58:41;;;;;;;16.77;15.23;;;;;;;14.36;100.00;102426.59;5203555;28;20034;-81
2023/09/04 07:01:12;;;;;;;19.43;16.00;;;;;;;14.50;100.00;102430.06;5203534;28;20118;-81
2023/09/04 07:03:44;;;;;;;17.30;15.70;;;;;;;14.58;100.00;102428.28;5203735;28;20161;-81
2023/09/04 07:06:15;;;;;;;18.13;16.37;;;;;;;14.70;100.00;102431.78;5203716;28;20034;-81
2023/09/04 07:08:46;;;;;;;22.47;15.90;;;;;;;14.90;100.00;102436.97;5203921;28;20034;-81
2023/09/04 07:11:18;;;;;;;16.40;15.00;;;;;;;14.93;100.00;102431.72;5204677;28;20026;-80
2023/09/04 07:13:50;;;;;;;18.33;16.42;;;;;;;15.06;100.00;102427.28;5207779;28;20038;-81
2023/09/04 07:16:21;;;;;;;17.80;16.03;;;;;;;15.15;100.00;102429.84;5209171;28;20096;-80
2023/09/04 07:18:53;;;;;;;16.20;14.47;;;;;;;15.29;100.00;102424.50;5209038;28;20031;-80
2023/09/04 07:21:24;;;;;;;17.20;14.80;;;;;;;15.49;100.00;102424.38;5209593;28;20057;-80
2023/09/04 07:23:55;;;;;;;15.50;13.87;;;;;;;15.64;100.00;102419.00;5209095;28;20038;-81
2023/09/04 07:26:27;;;;;;;15.67;14.23;;;;;;;15.77;100.00;102418.94;5191966;28;20081;-82
2023/09/04 07:28:58;;;;;;;15.70;14.03;;;;;;;15.95;100.00;102431.91;5208795;28;20090;-81
2023/09/04 07:31:29;;;;;;;14.73;13.43;;;;;;;16.10;100.00;102428.28;5188826;28;20031;-81
2023/09/04 07:34:01;;;;;;;15.23;13.30;;;;;;;16.18;100.00;102425.56;5205322;28;20379;-81
2023/09/04 07:36:33;;;;;;;14.90;13.30;;;;;;;16.38;100.00;102438.53;5205054;28;20048;-81
2023/09/04 07:39:04;;;;;;;14.50;13.03;;;;;;;16.51;100.00;102440.13;5186697;28;20100;-82
2023/09/04 07:41:36;;;;;;;13.43;12.03;;;;;;;16.66;100.00;102449.59;5203810;28;20061;-82
2023/09/04 07:44:07;;;;;;;12.45;11.35;;;;;;;16.77;100.00;102447.72;5202974;28;20034;-83
2023/09/04 07:46:40;;;;;;;12.90;11.80;;;;;;;16.93;100.00;102448.44;5203042;28;20035;-83
2023/09/04 07:49:12;;;;;;;;;;;;;;;17.13;100.00;102442.91;5203247;28;20134;-83
2023/09/04 07:51:43;;;;;;;12.38;11.07;;;;;;;17.31;100.00;102438.28;5202688;28;20399;-83
2023/09/04 07:54:15;;;;;;;11.17;10.10;;;;;;;17.44;98.96;102439.81;5202063;28;20076;-82
2023/09/04 07:56:46;;;;;;;13.23;9.97;;;;;;;17.62;98.63;102424.63;5202524;28;20026;-83
2023/09/04 07:59:17;;;;;;;10.57;9.50;;;;;;;17.74;99.42;102424.44;5202824;28;20042;-84
2023/09/04 08:01:49;;;;;;;10.30;9.30;;;;;;;17.86;96.76;102421.56;5202409;28;20026;-83
2023/09/04 08:04:20;;;;;;;10.67;9.13;;;;;;;18.04;93.55;102430.09;5202906;28;20121;-83
2023/09/04 08:06:51;;;;;;;11.80;9.83;;;;;;;18.16;93.95;102435.16;5202217;28;20031;-82
2023/09/04 08:09:23;;;;;;;10.27;8.73;;;;;;;18.21;90.84;102430.66;5202054;28;20057;-82
2023/09/04 08:11:54;;;;;;;11.73;8.30;;;;;;;18.39;90.73;102432.06;5202214;28;20041;-81
2023/09/04 08:14:26;;;;;;;9.37;8.37;;;;;;;18.59;91.16;102426.41;5202173;28;20034;-82
2023/09/04 08:16:57;;;;;;;9.73;8.73;;;;;;;18.67;89.25;102420.94;5201586;28;20040;-82
2023/09/04 08:19:29;;;;;;;12.57;8.73;;;;;;;18.89;88.61;102425.84;5201933;28;20124;-83
2023/09/04 08:22:00;;;;;;;8.93;7.53;;;;;;;19.10;88.53;102424.50;5184688;28;20038;-82
2023/09/04 08:24:32;;;;;;;8.57;7.67;;;;;;;19.18;87.60;102425.19;5201939;28;20038;-82
2023/09/04 08:27:03;;;;;;;9.37;7.23;;;;;;;19.42;86.30;102431.69;5201803;28;20038;-82
2023/09/04 08:29:35;;;;;;;13.03;8.00;;;;;;;19.54;85.49;102427.84;5201863;28;20031;-82
2023/09/04 08:32:06;;;;;;;9.00;7.37;;;;;;;19.63;85.03;102429.44;5201149;28;20084;-83
2023/09/04 08:34:38;;;;;;;10.17;7.50;;;;;;;19.88;84.32;102421.75;5201805;28;20030;-82
2023/09/04 08:37:09;;;;;;;10.25;6.95;;;;;;;20.00;82.25;102421.44;5201601;28;20034;-82
2023/09/04 08:39:41;;;;;;;12.93;6.97;;;;;;;20.16;82.24;102419.25;5202033;28;20062;-83
2023/09/04 08:42:12;;;;;;;7.50;6.70;;;;;;;20.38;81.84;102424.84;5184331;28;20031;-83
2023/09/04 08:44:46;;;;;;;8.50;6.33;;;;;;;20.44;77.32;102429.06;5202146;28;20356;-83
2023/09/04 08:47:20;;;;;;;11.80;6.80;;;;;;;20.48;76.02;102430.75;5201778;28;20273;-82
2023/09/04 08:49:54;;;;;;;8.50;6.63;;;;;;;20.64;78.21;102431.22;5186747;28;20042;-82
2023/09/04 08:52:26;;;;;;;9.05;6.30;;;;;;;20.62;74.66;102435.63;5206722;28;20522;-83
2023/09/04 08:54:58;;;;;;;7.27;6.50;;;;;;;20.82;74.83;102431.56;5201492;28;20121;-82
2023/09/04 08:57:30;;;;;;;10.35;5.90;;;;;;;21.07;75.45;102429.91;5201297;28;20026;-83
2023/09/04 09:00:02;;;;;;;9.55;6.57;;;;;;;21.04;71.47;102429.13;5201117;28;20026;-82
2023/09/04 09:02:35;;;;;;;9.35;6.00;;;;;;;21.26;73.88;102419.59;5201284;28;20039;-82
2023/09/04 09:05:07;;;;;;;7.15;4.88;;;;;;;21.43;71.48;102413.75;5201074;28;20069;-82
2023/09/04 09:07:41;;;;;;;7.50;5.18;;;;;;;21.52;69.05;102411.75;5201156;28;20080;-82
2023/09/04 09:10:17;;;;;;;6.82;4.32;;;;;;;22.14;67.58;102416.69;5201241;28;20038;-82
2023/09/04 09:12:48;;;;;;;7.13;4.70;;;;;;;22.85;64.17;102405.28;5205630;28;20069;-81
2023/09/04 09:15:20;;;;;;;10.38;5.00;;;;;;;23.63;59.20;102411.91;5208349;28;20482;-82
2023/09/04 09:17:56;;;;;;;6.17;4.23;;;;;;;24.32;60.51;102416.91;5208526;28;20369;-80
2023/09/04 09:20:31;;;;;;;5.43;4.25;;;;;;;24.87;56.58;102421.50;5209673;28;20061;-82
2023/09/04 09:23:05;;;;;;;6.28;3.72;;;;;;;25.14;55.81;102417.63;5207502;28;20113;-82
2023/09/04 09:25:38;;;;;;;4.95;3.40;;;;;;;25.64;51.08;102414.25;5202211;28;20136;-82
2023/09/04 09:28:09;;;;;;;5.88;3.83;;;;;;;25.78;50.57;102413.56;5200775;28;20046;-82
2023/09/04 09:30:41;;;;;;;10.07;3.90;;;;;;;26.16;48.08;102419.63;5201151;28;20034;-82
2023/09/04 09:33:18;;;;;;;6.43;3.92;;;;;;;26.37;48.27;102414.94;5183771;28;20039;-83
2023/09/04 09:35:52;;;;;;;4.55;3.00;;;;;;;26.81;48.67;102415.28;5202221;28;20110;-81
2023/09/04 09:38:24;;;;;;;5.28;3.17;;;;;;;26.74;44.33;102412.94;5185925;28;20467;-82
2023/09/04 09:40:55;;;;;;;;;;;;;;;28.12;49.60;102411.19;5203562;28;20035;-81
2023/09/04 09:43:26;;;;;;;4.97;2.73;;;;;;;27.36;43.71;102412.16;5204197;28;19913;-80
2023/09/04 09:46:00;;;;;;;4.35;2.80;;;;;;;27.44;43.90;102409.03;5206547;28;20257;-81
2023/09/04 09:48:31;;;;;;;4.55;2.90;;;;;;;27.66;44.07;102395.22;5207321;28;20406;-82
2023/09/04 09:51:06;;;;;;;;;;;;;;;29.32;44.83;102405.41;5205934;28;20077;-81
2023/09/04 09:53:51;;;;;;;4.60;2.90;;;;;;;28.25;40.22;102405.09;5205146;28;20354;-82
2023/09/04 09:56:23;;;;;;;7.45;2.80;;;;;;;28.20;41.22;102406.22;5205353;28;20102;-82
2023/09/04 09:58:56;;;;;;;;;;;;;;;29.62;41.64;102398.91;5188006;28;20122;-82
2023/09/04 10:01:31;;;;;;;4.22;2.90;;;;;;;28.55;40.01;102396.94;5206025;28;20325;-81
2023/09/04 10:04:04;;;;;;;3.47;2.90;;;;;;;28.72;39.55;102391.38;5206445;28;20150;-80
2023/09/04 10:06:37;;;;;;;5.80;3.17;;;;;;;29.21;38.89;102389.16;5189027;28;20053;-80
2023/09/04 10:09:09;;;;;;;5.07;2.83;;;;;;;29.96;38.06;102388.53;5187331;28;20028;-80
2023/09/04 10:11:44;;;;;;;5.95;2.92;;;;;;;30.04;37.68;102378.09;5204878;28;20038;-80
2023/09/04 10:14:25;;;;;;;5.65;3.42;;;;;;;30.40;39.05;102378.28;5204398;28;20045;-81
2023/09/04 10:17:01;;;;;;;6.60;2.78;;;;;;;31.32;38.59;102386.81;5204014;28;20498;-81
2023/09/04 10:19:36;;;;;;;5.60;4.05;;;;;;;30.83;36.31;102380.53;5203814;28;20050;-81
2023/09/04 10:22:17;;;;;;;5.20;3.05;;;;;;;31.25;35.10;102381.00;5203867;28;20046;-81
2023/09/04 10:25:12;;;;;;;5.30;2.83;;;;;;;32.25;37.42;102381.38;5204250;28;20034;-80
2023/09/04 10:27:51;;;;;;;5.57;2.65;;;;;;;32.16;36.58;102382.09;5204096;28;20093;-83
2023/09/04 10:30:26;;;;;;;2.55;2.35;;;;;;;32.27;33.58;102374.00;5204333;28;20109;-82
2023/09/04 10:32:59;;;;;;;4.95;2.80;;;;;;;32.35;32.31;102368.84;5204153;28;20022;-82
2023/09/04 10:35:31;;;;;;;6.40;3.45;;;;;;;32.33;32.82;102360.03;5204011;28;20061;-81
2023/09/04 10:38:05;;;;;;;5.45;3.13;;;;;;;32.44;31.39;102363.69;5204307;28;20054;-82
2023/09/04 10:40:38;;;;;;;5.47;3.15;;;;;;;33.17;34.59;102358.63;5203943;28;20072;-80
2023/09/04 10:43:10;;;;;;;8.45;3.45;;;;;;;33.59;32.79;102355.91;5203811;28;20030;-80
2023/09/04 10:45:41;;;;;;;3.65;2.60;;;;;;;33.85;30.14;102347.41;5203460;28;20034;-78
2023/09/04 10:48:13;;;;;;;4.95;2.70;;;;;;;33.91;27.78;102342.31;5203636;28;20371;-82
2023/09/04 10:50:44;;;;;;;4.03;2.65;;;;;;;33.42;28.96;102338.44;5203777;28;20458;-81
2023/09/04 10:53:31;;;;;;;3.17;2.58;;;;;;;33.71;29.02;102349.44;5203063;28;20070;-82
2023/09/04 10:56:10;;;;;;;4.70;2.67;;;;;;;34.38;29.96;102338.22;5203633;28;20033;-80
2023/09/04 10:59:08;;;;;;;6.32;2.83;;;;;;;35.12;29.06;102337.72;5205324;28;20061;-82
2023/09/04 11:01:39;;;;;;;5.28;2.67;;;;;;;34.94;28.26;102340.31;5203192;28;20092;-81
2023/09/04 11:04:25;;;;;;;4.35;2.80;;;;;;;34.86;27.15;102330.19;5206222;28;20422;-81
2023/09/04 11:07:15;;;;;;;4.13;2.60;;;;;;;35.38;28.63;102329.88;5206723;28;20109;-81
2023/09/04 11:09:47;;;;;;;4.43;2.90;;;;;;;35.19;28.13;102329.88;5204482;28;20409;-81
2023/09/04 11:12:23;;;;;;;4.70;2.83;;;;;;;35.11;27.22;102324.31;5203768;28;20039;-81
2023/09/04 11:14:55;;;;;;;3.63;2.30;;;;;;;35.20;28.30;102323.47;5203653;28;20058;-81
2023/09/04 11:17:32;;;;;;;7.43;2.53;;;;;;;35.06;27.73;102316.63;5203941;28;20046;-82
2023/09/04 11:20:04;;;;;;;4.32;2.88;;;;;;;35.44;26.10;102320.31;5205206;28;20049;-81
2023/09/04 11:22:35;;;;;;;4.57;2.65;;;;;;;36.11;28.03;102321.06;5205332;28;20381;-82
2023/09/04 11:25:07;;;;;;;7.95;3.05;;;;;;;36.13;24.91;102324.47;5204916;28;20034;-81
2023/09/04 11:27:38;;;;;;;4.20;3.05;;;;;;;35.98;25.95;102312.41;5186477;28;20505;-82
2023/09/04 11:30:10;;;;;;;4.50;2.65;;;;;;;36.63;25.50;102312.31;5203304;28;20138;-82
2023/09/04 11:32:41;;;;;;;4.57;2.90;;;;;;;36.02;25.16;102299.38;5203068;28;20034;-79
2023/09/04 11:35:14;;;;;;;3.60;2.78;;;;;;;36.57;25.42;102312.09;5203262;28;20034;-81
2023/09/04 11:37:46;;;;;;;4.45;2.50;;;;;;;37.34;25.42;102296.13;5202713;28;20045;-83
2023/09/04 11:40:18;;;;;;;4.72;2.58;;;;;;;37.86;22.84;102303.41;5202572;28;20386;-82